Hauptseite
METAR-TAF:

METAR-TAF

Flughäfen :

Flughafen Nassau Lynden Pindling

Nassau, Bahamas

Breite: 25-03N, Länge: 077-28W, Höhe: 3 m

Beobachtung

Neuester Wetterbericht von vor 17 Minuten, um 11:00 UTC
Wind 12 kt aus Ost
Temperatur 20°C
Luftfeuchtigkeit 64%
Luftdruck 1026 hPa
Sichtweite 10 km oder mehr
Durchbrochene Bewölkung in der Höhe von 3500 ft

METAR: MYNN 221100Z 09012KT 9999 BKN035 20/13 A3029 RMK PKWND 19KT

Zeit: 06:17 (11:17 UTC)

Prognose

Neuester Wetterbericht von vor 6 Stunden und 17 Minuten, um 05:00 UTC
Gültige Prognose vom 22 um 06 UTC bis 23 um 06 UTC
Wind 10 kt aus Ost/Nordost, Böen bis zu 20 kt
Sichtweite 10 km oder mehr
Aufgelockert bewölkt in der Höhe von 3000 ft
Durchbrochene Bewölkung in der Höhe von 5000 ft

TAF: MYNN 220500Z 2206/2306 07010G20KT 9999 SCT030 BKN050

Wetterbeobachtungen und Prognosen von mehr als 4000 Flughäfen (METAR und TAF Bericht).

Die verfügbaren Stationen werden durch gelbe und rote Markierungen auf der Karte dargestellt.

Führen Sie die Maus auf sie, um den Namen der Station zu sehen.

Darauf klicken, um die Beobachtung von Wetterbeobachtungen und Prognosen zu sehen.

Um die Karte zu ändern : klicken Sie auf den grünen Tasten mit einem schwarzen Kreuz Zum Vergrößern, auf den grünen Button mit einem Gedankenstrich zu verkleinern, oder auf die grünen Pfeile für benachbarte Karten.


METAR-TAF: